sensor_id;sensor_type;location;lat;lon;timestamp;P1;durP1;ratioP1;P2;durP2;ratioP2
1799;SDS011;919;48.274;12.292;2022-08-03T00:00:56;2.07;;;1.63;;
1799;SDS011;919;48.274;12.292;2022-08-03T00:03:23;2.63;;;1.43;;
1799;SDS011;919;48.274;12.292;2022-08-03T00:05:49;1.60;;;1.23;;
1799;SDS011;919;48.274;12.292;2022-08-03T00:08:17;1.47;;;1.37;;
1799;SDS011;919;48.274;12.292;2022-08-03T00:10:44;1.80;;;1.57;;
1799;SDS011;919;48.274;12.292;2022-08-03T00:13:11;1.27;;;1.17;;
1799;SDS011;919;48.274;12.292;2022-08-03T00:15:38;2.40;;;1.60;;
1799;SDS011;919;48.274;12.292;2022-08-03T00:18:05;1.37;;;1.27;;
1799;SDS011;919;48.274;12.292;2022-08-03T00:20:32;1.87;;;1.60;;
1799;SDS011;919;48.274;12.292;2022-08-03T00:22:59;1.20;;;1.10;;
1799;SDS011;919;48.274;12.292;2022-08-03T00:25:28;2.33;;;1.20;;
1799;SDS011;919;48.274;12.292;2022-08-03T00:27:55;1.20;;;1.10;;
1799;SDS011;919;48.274;12.292;2022-08-03T00:30:21;1.30;;;1.20;;
1799;SDS011;919;48.274;12.292;2022-08-03T00:32:48;4.50;;;1.10;;
1799;SDS011;919;48.274;12.292;2022-08-03T00:35:15;1.43;;;1.33;;
1799;SDS011;919;48.274;12.292;2022-08-03T00:37:41;1.80;;;1.70;;
1799;SDS011;919;48.274;12.292;2022-08-03T00:40:09;1.60;;;1.50;;
1799;SDS011;919;48.274;12.292;2022-08-03T00:42:46;1.40;;;1.30;;
1799;SDS011;919;48.274;12.292;2022-08-03T00:45:14;1.43;;;1.33;;
1799;SDS011;919;48.274;12.292;2022-08-03T00:47:41;1.60;;;1.50;;
1799;SDS011;919;48.274;12.292;2022-08-03T00:50:08;1.30;;;1.20;;
1799;SDS011;919;48.274;12.292;2022-08-03T00:52:35;0.90;;;0.90;;
1799;SDS011;919;48.274;12.292;2022-08-03T00:55:02;1.70;;;1.00;;
1799;SDS011;919;48.274;12.292;2022-08-03T00:57:29;1.77;;;1.07;;
1799;SDS011;919;48.274;12.292;2022-08-03T00:59:59;0.77;;;0.77;;
1799;SDS011;919;48.274;12.292;2022-08-03T01:02:25;0.97;;;0.90;;
1799;SDS011;919;48.274;12.292;2022-08-03T01:04:52;1.30;;;1.20;;
1799;SDS011;919;48.274;12.292;2022-08-03T01:07:20;1.60;;;1.00;;
1799;SDS011;919;48.274;12.292;2022-08-03T01:09:59;2.00;;;1.30;;
1799;SDS011;919;48.274;12.292;2022-08-03T01:12:30;2.07;;;0.90;;
1799;SDS011;919;48.274;12.292;2022-08-03T01:15:04;1.37;;;0.77;;
1799;SDS011;919;48.274;12.292;2022-08-03T01:17:39;1.83;;;1.73;;
1799;SDS011;919;48.274;12.292;2022-08-03T01:20:12;1.33;;;1.07;;
1799;SDS011;919;48.274;12.292;2022-08-03T01:25:39;1.23;;;1.13;;
1799;SDS011;919;48.274;12.292;2022-08-03T01:28:21;0.90;;;0.90;;
1799;SDS011;919;48.274;12.292;2022-08-03T01:31:00;2.30;;;1.10;;
1799;SDS011;919;48.274;12.292;2022-08-03T01:33:33;1.50;;;1.20;;
1799;SDS011;919;48.274;12.292;2022-08-03T01:36:02;1.83;;;1.50;;
1799;SDS011;919;48.274;12.292;2022-08-03T01:38:33;1.10;;;1.00;;
1799;SDS011;919;48.274;12.292;2022-08-03T01:41:01;2.90;;;1.10;;
1799;SDS011;919;48.274;12.292;2022-08-03T01:43:32;0.80;;;0.80;;
1799;SDS011;919;48.274;12.292;2022-08-03T01:46:03;1.30;;;1.20;;
1799;SDS011;919;48.274;12.292;2022-08-03T01:48:30;1.00;;;1.00;;
1799;SDS011;919;48.274;12.292;2022-08-03T01:50:58;1.10;;;1.10;;
1799;SDS011;919;48.274;12.292;2022-08-03T01:53:25;0.97;;;0.90;;
1799;SDS011;919;48.274;12.292;2022-08-03T01:55:54;1.03;;;1.03;;
1799;SDS011;919;48.274;12.292;2022-08-03T01:58:22;1.73;;;0.93;;
1799;SDS011;919;48.274;12.292;2022-08-03T02:00:50;1.57;;;1.47;;
1799;SDS011;919;48.274;12.292;2022-08-03T02:03:21;1.20;;;1.10;;
1799;SDS011;919;48.274;12.292;2022-08-03T02:05:49;6.33;;;1.10;;
1799;SDS011;919;48.274;12.292;2022-08-03T02:08:18;0.80;;;0.80;;
1799;SDS011;919;48.274;12.292;2022-08-03T02:10:46;0.80;;;0.80;;
1799;SDS011;919;48.274;12.292;2022-08-03T02:13:15;2.30;;;0.87;;
1799;SDS011;919;48.274;12.292;2022-08-03T02:15:43;0.77;;;0.77;;
1799;SDS011;919;48.274;12.292;2022-08-03T02:18:12;0.50;;;0.50;;
1799;SDS011;919;48.274;12.292;2022-08-03T02:20:42;1.63;;;0.73;;
1799;SDS011;919;48.274;12.292;2022-08-03T02:23:10;0.53;;;0.53;;
1799;SDS011;919;48.274;12.292;2022-08-03T02:25:40;1.37;;;1.10;;
1799;SDS011;919;48.274;12.292;2022-08-03T02:28:11;0.80;;;0.80;;
1799;SDS011;919;48.274;12.292;2022-08-03T02:30:42;1.43;;;1.00;;
1799;SDS011;919;48.274;12.292;2022-08-03T02:33:13;1.00;;;1.00;;
1799;SDS011;919;48.274;12.292;2022-08-03T02:35:46;1.40;;;1.30;;
1799;SDS011;919;48.274;12.292;2022-08-03T02:38:17;0.97;;;0.97;;
1799;SDS011;919;48.274;12.292;2022-08-03T02:40:46;1.50;;;1.40;;
1799;SDS011;919;48.274;12.292;2022-08-03T02:43:16;4.10;;;1.30;;
1799;SDS011;919;48.274;12.292;2022-08-03T02:45:45;0.90;;;0.90;;
1799;SDS011;919;48.274;12.292;2022-08-03T02:48:15;1.20;;;1.10;;
1799;SDS011;919;48.274;12.292;2022-08-03T02:50:43;1.27;;;1.17;;
1799;SDS011;919;48.274;12.292;2022-08-03T02:53:13;0.87;;;0.87;;
1799;SDS011;919;48.274;12.292;2022-08-03T02:55:42;2.40;;;1.00;;
1799;SDS011;919;48.274;12.292;2022-08-03T02:58:11;1.40;;;1.27;;
1799;SDS011;919;48.274;12.292;2022-08-03T03:00:39;1.00;;;0.90;;
1799;SDS011;919;48.274;12.292;2022-08-03T03:03:09;1.10;;;1.00;;
1799;SDS011;919;48.274;12.292;2022-08-03T03:05:36;1.37;;;0.90;;
1799;SDS011;919;48.274;12.292;2022-08-03T03:08:05;2.03;;;0.97;;
1799;SDS011;919;48.274;12.292;2022-08-03T03:10:34;2.40;;;0.80;;
1799;SDS011;919;48.274;12.292;2022-08-03T03:13:02;0.70;;;0.70;;
1799;SDS011;919;48.274;12.292;2022-08-03T03:15:29;3.77;;;0.80;;
1799;SDS011;919;48.274;12.292;2022-08-03T03:17:59;0.70;;;0.70;;
1799;SDS011;919;48.274;12.292;2022-08-03T03:20:26;0.60;;;0.60;;
1799;SDS011;919;48.274;12.292;2022-08-03T03:22:57;0.50;;;0.50;;
1799;SDS011;919;48.274;12.292;2022-08-03T03:25:24;0.97;;;0.97;;
1799;SDS011;919;48.274;12.292;2022-08-03T03:27:53;0.80;;;0.80;;
1799;SDS011;919;48.274;12.292;2022-08-03T03:30:21;0.67;;;0.67;;
1799;SDS011;919;48.274;12.292;2022-08-03T03:32:47;0.83;;;0.60;;
1799;SDS011;919;48.274;12.292;2022-08-03T03:35:14;0.57;;;0.57;;
1799;SDS011;919;48.274;12.292;2022-08-03T03:37:41;0.60;;;0.53;;
1799;SDS011;919;48.274;12.292;2022-08-03T03:40:09;0.73;;;0.73;;
1799;SDS011;919;48.274;12.292;2022-08-03T03:42:36;0.57;;;0.57;;
1799;SDS011;919;48.274;12.292;2022-08-03T03:45:05;1.13;;;1.00;;
1799;SDS011;919;48.274;12.292;2022-08-03T03:47:33;0.87;;;0.87;;
1799;SDS011;919;48.274;12.292;2022-08-03T03:50:01;1.83;;;1.33;;
1799;SDS011;919;48.274;12.292;2022-08-03T03:52:28;1.03;;;0.97;;
1799;SDS011;919;48.274;12.292;2022-08-03T03:54:56;1.63;;;1.53;;
1799;SDS011;919;48.274;12.292;2022-08-03T03:57:23;2.60;;;1.10;;
1799;SDS011;919;48.274;12.292;2022-08-03T03:59:50;1.13;;;1.03;;
1799;SDS011;919;48.274;12.292;2022-08-03T04:02:18;0.90;;;0.90;;
1799;SDS011;919;48.274;12.292;2022-08-03T04:04:45;1.90;;;1.37;;
1799;SDS011;919;48.274;12.292;2022-08-03T04:07:30;1.97;;;1.50;;
1799;SDS011;919;48.274;12.292;2022-08-03T04:10:27;3.20;;;1.20;;
1799;SDS011;919;48.274;12.292;2022-08-03T04:13:14;1.20;;;1.10;;
1799;SDS011;919;48.274;12.292;2022-08-03T04:15:42;1.00;;;1.00;;
1799;SDS011;919;48.274;12.292;2022-08-03T04:18:13;1.40;;;1.30;;
1799;SDS011;919;48.274;12.292;2022-08-03T04:20:43;2.50;;;1.30;;
1799;SDS011;919;48.274;12.292;2022-08-03T04:23:12;1.07;;;1.07;;
1799;SDS011;919;48.274;12.292;2022-08-03T04:25:40;1.00;;;1.00;;
1799;SDS011;919;48.274;12.292;2022-08-03T04:28:08;1.43;;;1.33;;
1799;SDS011;919;48.274;12.292;2022-08-03T04:30:36;1.53;;;1.10;;
1799;SDS011;919;48.274;12.292;2022-08-03T04:33:11;0.80;;;0.80;;
1799;SDS011;919;48.274;12.292;2022-08-03T04:35:39;0.93;;;0.93;;
1799;SDS011;919;48.274;12.292;2022-08-03T04:38:08;1.10;;;1.10;;
1799;SDS011;919;48.274;12.292;2022-08-03T04:40:40;1.33;;;1.23;;
1799;SDS011;919;48.274;12.292;2022-08-03T04:43:09;0.90;;;0.90;;
1799;SDS011;919;48.274;12.292;2022-08-03T04:45:37;1.23;;;1.13;;
1799;SDS011;919;48.274;12.292;2022-08-03T04:48:05;1.13;;;1.13;;
1799;SDS011;919;48.274;12.292;2022-08-03T04:50:34;1.43;;;1.23;;
1799;SDS011;919;48.274;12.292;2022-08-03T04:53:01;1.40;;;1.30;;
1799;SDS011;919;48.274;12.292;2022-08-03T04:55:28;2.20;;;1.47;;
1799;SDS011;919;48.274;12.292;2022-08-03T04:57:56;1.00;;;1.00;;
1799;SDS011;919;48.274;12.292;2022-08-03T05:00:23;2.10;;;2.00;;
1799;SDS011;919;48.274;12.292;2022-08-03T05:02:50;2.43;;;1.67;;
1799;SDS011;919;48.274;12.292;2022-08-03T05:05:18;2.77;;;2.30;;
1799;SDS011;919;48.274;12.292;2022-08-03T05:07:46;2.10;;;1.80;;
1799;SDS011;919;48.274;12.292;2022-08-03T05:10:14;1.97;;;1.87;;
1799;SDS011;919;48.274;12.292;2022-08-03T05:12:40;1.63;;;1.53;;
1799;SDS011;919;48.274;12.292;2022-08-03T05:15:08;1.27;;;1.20;;
1799;SDS011;919;48.274;12.292;2022-08-03T05:17:35;1.60;;;1.50;;
1799;SDS011;919;48.274;12.292;2022-08-03T05:20:02;1.70;;;1.53;;
1799;SDS011;919;48.274;12.292;2022-08-03T05:22:30;1.57;;;1.47;;
1799;SDS011;919;48.274;12.292;2022-08-03T05:24:58;2.17;;;2.07;;
1799;SDS011;919;48.274;12.292;2022-08-03T05:27:26;5.10;;;2.40;;
1799;SDS011;919;48.274;12.292;2022-08-03T05:29:52;2.40;;;2.20;;
1799;SDS011;919;48.274;12.292;2022-08-03T05:32:19;3.70;;;3.07;;
1799;SDS011;919;48.274;12.292;2022-08-03T05:34:46;2.60;;;2.40;;
1799;SDS011;919;48.274;12.292;2022-08-03T05:37:13;3.53;;;3.33;;
1799;SDS011;919;48.274;12.292;2022-08-03T05:39:40;3.90;;;3.20;;
1799;SDS011;919;48.274;12.292;2022-08-03T05:42:08;3.33;;;3.03;;
1799;SDS011;919;48.274;12.292;2022-08-03T05:44:35;2.90;;;2.70;;
1799;SDS011;919;48.274;12.292;2022-08-03T05:47:03;3.73;;;2.87;;
1799;SDS011;919;48.274;12.292;2022-08-03T05:49:30;2.43;;;2.30;;
1799;SDS011;919;48.274;12.292;2022-08-03T05:51:57;3.00;;;2.80;;
1799;SDS011;919;48.274;12.292;2022-08-03T05:54:23;3.07;;;2.87;;
1799;SDS011;919;48.274;12.292;2022-08-03T05:56:51;2.80;;;2.60;;
1799;SDS011;919;48.274;12.292;2022-08-03T05:59:19;3.40;;;3.10;;
1799;SDS011;919;48.274;12.292;2022-08-03T06:01:46;5.40;;;3.30;;
1799;SDS011;919;48.274;12.292;2022-08-03T06:04:13;3.57;;;3.30;;
1799;SDS011;919;48.274;12.292;2022-08-03T06:06:40;3.40;;;3.10;;
1799;SDS011;919;48.274;12.292;2022-08-03T06:09:07;2.80;;;2.60;;
1799;SDS011;919;48.274;12.292;2022-08-03T06:11:34;3.10;;;2.60;;
1799;SDS011;919;48.274;12.292;2022-08-03T06:14:01;3.40;;;3.10;;
1799;SDS011;919;48.274;12.292;2022-08-03T06:16:29;3.13;;;2.93;;
1799;SDS011;919;48.274;12.292;2022-08-03T06:18:56;2.37;;;2.17;;
1799;SDS011;919;48.274;12.292;2022-08-03T06:21:23;3.87;;;3.57;;
1799;SDS011;919;48.274;12.292;2022-08-03T06:23:49;5.70;;;3.43;;
1799;SDS011;919;48.274;12.292;2022-08-03T06:26:17;3.43;;;3.13;;
1799;SDS011;919;48.274;12.292;2022-08-03T06:28:44;3.27;;;3.07;;
1799;SDS011;919;48.274;12.292;2022-08-03T06:31:11;3.00;;;2.80;;
1799;SDS011;919;48.274;12.292;2022-08-03T06:33:39;3.30;;;3.10;;
1799;SDS011;919;48.274;12.292;2022-08-03T06:36:06;3.47;;;3.23;;
1799;SDS011;919;48.274;12.292;2022-08-03T06:38:32;3.10;;;2.90;;
1799;SDS011;919;48.274;12.292;2022-08-03T06:40:59;3.27;;;2.97;;
1799;SDS011;919;48.274;12.292;2022-08-03T06:43:26;3.60;;;3.30;;
1799;SDS011;919;48.274;12.292;2022-08-03T06:45:52;3.90;;;3.60;;
1799;SDS011;919;48.274;12.292;2022-08-03T06:48:19;3.53;;;3.23;;
1799;SDS011;919;48.274;12.292;2022-08-03T06:50:48;4.20;;;3.77;;
1799;SDS011;919;48.274;12.292;2022-08-03T06:53:15;3.80;;;3.50;;
1799;SDS011;919;48.274;12.292;2022-08-03T06:55:41;4.10;;;3.40;;
1799;SDS011;919;48.274;12.292;2022-08-03T06:58:08;7.27;;;4.10;;
1799;SDS011;919;48.274;12.292;2022-08-03T07:00:35;2.60;;;2.40;;
1799;SDS011;919;48.274;12.292;2022-08-03T07:03:01;3.50;;;3.20;;
1799;SDS011;919;48.274;12.292;2022-08-03T07:05:28;2.60;;;2.40;;
1799;SDS011;919;48.274;12.292;2022-08-03T07:07:58;3.70;;;3.00;;
1799;SDS011;919;48.274;12.292;2022-08-03T07:10:27;3.63;;;2.97;;
1799;SDS011;919;48.274;12.292;2022-08-03T07:12:54;3.00;;;2.80;;
1799;SDS011;919;48.274;12.292;2022-08-03T07:15:20;3.50;;;3.10;;
1799;SDS011;919;48.274;12.292;2022-08-03T07:17:47;3.13;;;2.93;;
1799;SDS011;919;48.274;12.292;2022-08-03T07:20:14;3.10;;;2.80;;
1799;SDS011;919;48.274;12.292;2022-08-03T07:22:42;2.63;;;2.43;;
1799;SDS011;919;48.274;12.292;2022-08-03T07:25:10;2.60;;;2.40;;
1799;SDS011;919;48.274;12.292;2022-08-03T07:27:37;3.43;;;2.60;;
1799;SDS011;919;48.274;12.292;2022-08-03T07:30:04;2.30;;;2.10;;
1799;SDS011;919;48.274;12.292;2022-08-03T07:32:33;3.03;;;2.83;;
1799;SDS011;919;48.274;12.292;2022-08-03T07:35:00;2.00;;;1.90;;
1799;SDS011;919;48.274;12.292;2022-08-03T07:37:28;3.17;;;2.97;;
1799;SDS011;919;48.274;12.292;2022-08-03T07:39:55;3.03;;;2.83;;
1799;SDS011;919;48.274;12.292;2022-08-03T07:42:24;3.93;;;3.53;;
1799;SDS011;919;48.274;12.292;2022-08-03T07:44:50;3.00;;;2.80;;
1799;SDS011;919;48.274;12.292;2022-08-03T07:47:17;3.07;;;2.87;;
1799;SDS011;919;48.274;12.292;2022-08-03T07:49:44;3.60;;;2.80;;
1799;SDS011;919;48.274;12.292;2022-08-03T07:52:11;2.93;;;2.73;;
1799;SDS011;919;48.274;12.292;2022-08-03T07:54:55;2.70;;;2.23;;
1799;SDS011;919;48.274;12.292;2022-08-03T07:57:23;3.20;;;2.90;;
1799;SDS011;919;48.274;12.292;2022-08-03T07:59:50;2.77;;;2.50;;
1799;SDS011;919;48.274;12.292;2022-08-03T08:02:17;2.40;;;2.20;;
1799;SDS011;919;48.274;12.292;2022-08-03T08:04:44;2.20;;;2.03;;
1799;SDS011;919;48.274;12.292;2022-08-03T08:07:11;4.27;;;2.23;;
1799;SDS011;919;48.274;12.292;2022-08-03T08:09:38;3.10;;;2.90;;
1799;SDS011;919;48.274;12.292;2022-08-03T08:12:04;3.70;;;2.57;;
1799;SDS011;919;48.274;12.292;2022-08-03T08:14:34;2.40;;;2.20;;
1799;SDS011;919;48.274;12.292;2022-08-03T08:17:01;2.87;;;2.53;;
1799;SDS011;919;48.274;12.292;2022-08-03T08:19:28;2.60;;;2.40;;
1799;SDS011;919;48.274;12.292;2022-08-03T08:21:55;2.60;;;2.40;;
1799;SDS011;919;48.274;12.292;2022-08-03T08:24:21;2.60;;;2.40;;
1799;SDS011;919;48.274;12.292;2022-08-03T08:26:48;2.37;;;2.17;;
1799;SDS011;919;48.274;12.292;2022-08-03T08:29:15;2.57;;;2.37;;
1799;SDS011;919;48.274;12.292;2022-08-03T08:31:43;2.80;;;2.50;;
1799;SDS011;919;48.274;12.292;2022-08-03T08:34:10;2.40;;;2.20;;
1799;SDS011;919;48.274;12.292;2022-08-03T08:36:37;2.17;;;2.07;;
1799;SDS011;919;48.274;12.292;2022-08-03T08:39:04;2.40;;;2.30;;
1799;SDS011;919;48.274;12.292;2022-08-03T08:41:31;2.60;;;2.33;;
1799;SDS011;919;48.274;12.292;2022-08-03T08:43:58;2.43;;;2.23;;
1799;SDS011;919;48.274;12.292;2022-08-03T08:46:25;2.73;;;2.53;;
1799;SDS011;919;48.274;12.292;2022-08-03T08:48:55;3.20;;;2.70;;
1799;SDS011;919;48.274;12.292;2022-08-03T08:51:22;2.53;;;1.90;;
1799;SDS011;919;48.274;12.292;2022-08-03T08:53:54;2.67;;;2.47;;
1799;SDS011;919;48.274;12.292;2022-08-03T08:56:26;6.13;;;2.63;;
1799;SDS011;919;48.274;12.292;2022-08-03T08:58:55;2.73;;;2.53;;
1799;SDS011;919;48.274;12.292;2022-08-03T09:01:24;2.50;;;2.00;;
1799;SDS011;919;48.274;12.292;2022-08-03T09:03:51;2.20;;;2.00;;
1799;SDS011;919;48.274;12.292;2022-08-03T09:06:20;2.60;;;2.40;;
1799;SDS011;919;48.274;12.292;2022-08-03T09:08:48;2.17;;;2.07;;
1799;SDS011;919;48.274;12.292;2022-08-03T09:11:15;2.70;;;2.10;;
1799;SDS011;919;48.274;12.292;2022-08-03T09:13:45;2.73;;;2.27;;
1799;SDS011;919;48.274;12.292;2022-08-03T09:16:13;2.90;;;2.57;;
1799;SDS011;919;48.274;12.292;2022-08-03T09:18:41;2.67;;;2.07;;
1799;SDS011;919;48.274;12.292;2022-08-03T09:21:16;2.07;;;1.97;;
1799;SDS011;919;48.274;12.292;2022-08-03T09:23:46;1.87;;;1.77;;
1799;SDS011;919;48.274;12.292;2022-08-03T09:26:21;2.70;;;2.20;;
1799;SDS011;919;48.274;12.292;2022-08-03T09:28:55;2.17;;;2.07;;
1799;SDS011;919;48.274;12.292;2022-08-03T09:31:29;3.90;;;2.30;;
1799;SDS011;919;48.274;12.292;2022-08-03T09:33:57;1.63;;;1.53;;
1799;SDS011;919;48.274;12.292;2022-08-03T09:36:33;1.83;;;1.73;;
1799;SDS011;919;48.274;12.292;2022-08-03T09:39:06;2.30;;;2.10;;
1799;SDS011;919;48.274;12.292;2022-08-03T09:41:36;2.00;;;1.90;;
1799;SDS011;919;48.274;12.292;2022-08-03T09:44:04;1.77;;;1.67;;
1799;SDS011;919;48.274;12.292;2022-08-03T09:46:31;2.70;;;2.00;;
1799;SDS011;919;48.274;12.292;2022-08-03T09:51:43;3.00;;;2.33;;
1799;SDS011;919;48.274;12.292;2022-08-03T09:54:11;2.60;;;2.20;;
1799;SDS011;919;48.274;12.292;2022-08-03T09:56:41;2.13;;;2.03;;
1799;SDS011;919;48.274;12.292;2022-08-03T09:59:10;2.20;;;2.10;;
1799;SDS011;919;48.274;12.292;2022-08-03T10:01:37;2.17;;;1.97;;
1799;SDS011;919;48.274;12.292;2022-08-03T10:04:10;2.17;;;1.97;;
1799;SDS011;919;48.274;12.292;2022-08-03T10:06:42;2.10;;;2.00;;
1799;SDS011;919;48.274;12.292;2022-08-03T10:09:09;2.43;;;1.60;;
1799;SDS011;919;48.274;12.292;2022-08-03T10:11:41;1.80;;;1.70;;
1799;SDS011;919;48.274;12.292;2022-08-03T10:14:11;2.27;;;1.73;;
1799;SDS011;919;48.274;12.292;2022-08-03T10:16:43;4.63;;;1.90;;
1799;SDS011;919;48.274;12.292;2022-08-03T10:19:11;2.60;;;2.40;;
1799;SDS011;919;48.274;12.292;2022-08-03T10:21:39;1.83;;;1.60;;
1799;SDS011;919;48.274;12.292;2022-08-03T10:24:12;3.70;;;2.10;;
1799;SDS011;919;48.274;12.292;2022-08-03T10:26:44;1.90;;;1.80;;
1799;SDS011;919;48.274;12.292;2022-08-03T10:29:13;1.80;;;1.60;;
1799;SDS011;919;48.274;12.292;2022-08-03T10:31:46;1.93;;;1.83;;
1799;SDS011;919;48.274;12.292;2022-08-03T10:34:16;1.67;;;1.43;;
1799;SDS011;919;48.274;12.292;2022-08-03T10:36:47;1.90;;;1.80;;
1799;SDS011;919;48.274;12.292;2022-08-03T10:39:17;1.70;;;1.60;;
1799;SDS011;919;48.274;12.292;2022-08-03T10:41:46;1.60;;;1.50;;
1799;SDS011;919;48.274;12.292;2022-08-03T10:44:16;2.60;;;1.60;;
1799;SDS011;919;48.274;12.292;2022-08-03T10:46:44;2.00;;;1.90;;
1799;SDS011;919;48.274;12.292;2022-08-03T10:49:15;3.43;;;1.80;;
1799;SDS011;919;48.274;12.292;2022-08-03T10:51:43;1.90;;;1.80;;
1799;SDS011;919;48.274;12.292;2022-08-03T11:00:13;1.90;;;1.80;;
1799;SDS011;919;48.274;12.292;2022-08-03T11:05:38;2.13;;;2.00;;
1799;SDS011;919;48.274;12.292;2022-08-03T11:10:54;2.03;;;1.93;;
1799;SDS011;919;48.274;12.292;2022-08-03T11:13:23;7.43;;;2.00;;
1799;SDS011;919;48.274;12.292;2022-08-03T11:15:53;1.87;;;1.77;;
1799;SDS011;919;48.274;12.292;2022-08-03T11:18:21;2.00;;;1.73;;
1799;SDS011;919;48.274;12.292;2022-08-03T11:20:49;2.07;;;1.97;;
1799;SDS011;919;48.274;12.292;2022-08-03T11:23:18;1.60;;;1.50;;
1799;SDS011;919;48.274;12.292;2022-08-03T11:28:51;3.00;;;2.13;;
1799;SDS011;919;48.274;12.292;2022-08-03T11:34:12;1.80;;;1.70;;
1799;SDS011;919;48.274;12.292;2022-08-03T11:39:45;1.50;;;1.40;;
1799;SDS011;919;48.274;12.292;2022-08-03T11:45:12;1.57;;;1.47;;
1799;SDS011;919;48.274;12.292;2022-08-03T11:47:39;1.50;;;1.43;;
1799;SDS011;919;48.274;12.292;2022-08-03T11:50:08;2.00;;;1.90;;
1799;SDS011;919;48.274;12.292;2022-08-03T11:52:37;1.70;;;1.60;;
1799;SDS011;919;48.274;12.292;2022-08-03T11:55:09;1.83;;;1.40;;
1799;SDS011;919;48.274;12.292;2022-08-03T11:57:37;2.60;;;2.03;;
1799;SDS011;919;48.274;12.292;2022-08-03T12:00:19;2.87;;;1.80;;
1799;SDS011;919;48.274;12.292;2022-08-03T12:02:57;2.90;;;1.90;;
1799;SDS011;919;48.274;12.292;2022-08-03T12:05:32;2.70;;;1.50;;
1799;SDS011;919;48.274;12.292;2022-08-03T12:08:00;1.63;;;1.53;;
1799;SDS011;919;48.274;12.292;2022-08-03T12:10:27;1.50;;;1.40;;
1799;SDS011;919;48.274;12.292;2022-08-03T12:12:54;1.60;;;1.50;;
1799;SDS011;919;48.274;12.292;2022-08-03T12:15:25;1.80;;;1.70;;
1799;SDS011;919;48.274;12.292;2022-08-03T12:17:53;1.67;;;1.57;;
1799;SDS011;919;48.274;12.292;2022-08-03T12:20:22;2.70;;;1.70;;
1799;SDS011;919;48.274;12.292;2022-08-03T12:22:50;1.60;;;1.50;;
1799;SDS011;919;48.274;12.292;2022-08-03T12:25:20;3.60;;;1.93;;
1799;SDS011;919;48.274;12.292;2022-08-03T12:27:48;1.73;;;1.43;;
1799;SDS011;919;48.274;12.292;2022-08-03T12:30:15;1.70;;;1.60;;
1799;SDS011;919;48.274;12.292;2022-08-03T12:32:43;1.50;;;1.43;;
1799;SDS011;919;48.274;12.292;2022-08-03T12:35:20;2.60;;;1.90;;
1799;SDS011;919;48.274;12.292;2022-08-03T12:37:48;1.70;;;1.60;;
1799;SDS011;919;48.274;12.292;2022-08-03T12:40:15;3.53;;;1.60;;
1799;SDS011;919;48.274;12.292;2022-08-03T12:42:51;1.50;;;1.40;;
1799;SDS011;919;48.274;12.292;2022-08-03T12:45:18;1.60;;;1.50;;
1799;SDS011;919;48.274;12.292;2022-08-03T12:47:51;1.70;;;1.60;;
1799;SDS011;919;48.274;12.292;2022-08-03T12:50:22;1.63;;;1.53;;
1799;SDS011;919;48.274;12.292;2022-08-03T12:52:53;1.90;;;1.50;;
1799;SDS011;919;48.274;12.292;2022-08-03T12:55:21;1.50;;;1.40;;
1799;SDS011;919;48.274;12.292;2022-08-03T12:57:48;1.53;;;1.40;;
1799;SDS011;919;48.274;12.292;2022-08-03T13:00:16;1.40;;;1.30;;
1799;SDS011;919;48.274;12.292;2022-08-03T13:02:44;1.50;;;1.40;;
1799;SDS011;919;48.274;12.292;2022-08-03T13:05:13;1.80;;;1.70;;
1799;SDS011;919;48.274;12.292;2022-08-03T13:07:40;1.60;;;1.50;;
1799;SDS011;919;48.274;12.292;2022-08-03T13:10:08;2.03;;;1.50;;
1799;SDS011;919;48.274;12.292;2022-08-03T13:12:44;2.07;;;1.97;;
1799;SDS011;919;48.274;12.292;2022-08-03T13:15:12;1.60;;;1.50;;
1799;SDS011;919;48.274;12.292;2022-08-03T13:17:39;1.67;;;1.57;;
1799;SDS011;919;48.274;12.292;2022-08-03T13:20:06;1.73;;;1.40;;
1799;SDS011;919;48.274;12.292;2022-08-03T13:22:35;1.30;;;1.30;;
1799;SDS011;919;48.274;12.292;2022-08-03T13:25:02;1.60;;;1.50;;
1799;SDS011;919;48.274;12.292;2022-08-03T13:27:30;6.03;;;3.00;;
1799;SDS011;919;48.274;12.292;2022-08-03T13:29:57;1.50;;;1.40;;
1799;SDS011;919;48.274;12.292;2022-08-03T13:32:24;1.70;;;1.60;;
1799;SDS011;919;48.274;12.292;2022-08-03T13:34:50;1.90;;;1.80;;
1799;SDS011;919;48.274;12.292;2022-08-03T13:37:17;6.73;;;1.70;;
1799;SDS011;919;48.274;12.292;2022-08-03T13:39:45;1.57;;;1.47;;
1799;SDS011;919;48.274;12.292;2022-08-03T13:42:12;1.43;;;1.33;;
1799;SDS011;919;48.274;12.292;2022-08-03T13:44:39;1.40;;;1.30;;
1799;SDS011;919;48.274;12.292;2022-08-03T13:47:06;1.60;;;1.50;;
1799;SDS011;919;48.274;12.292;2022-08-03T13:49:33;2.23;;;1.90;;
1799;SDS011;919;48.274;12.292;2022-08-03T13:52:00;1.67;;;1.57;;
1799;SDS011;919;48.274;12.292;2022-08-03T13:54:27;8.93;;;1.50;;
1799;SDS011;919;48.274;12.292;2022-08-03T13:56:56;1.30;;;1.27;;
1799;SDS011;919;48.274;12.292;2022-08-03T13:59:23;1.27;;;1.27;;
1799;SDS011;919;48.274;12.292;2022-08-03T14:01:52;2.00;;;1.60;;
1799;SDS011;919;48.274;12.292;2022-08-03T14:04:19;3.13;;;1.50;;
1799;SDS011;919;48.274;12.292;2022-08-03T14:06:46;1.70;;;1.60;;
1799;SDS011;919;48.274;12.292;2022-08-03T14:09:13;4.50;;;1.50;;
1799;SDS011;919;48.274;12.292;2022-08-03T14:11:41;1.53;;;1.43;;
1799;SDS011;919;48.274;12.292;2022-08-03T14:14:10;2.20;;;1.53;;
1799;SDS011;919;48.274;12.292;2022-08-03T14:16:38;2.43;;;1.20;;
1799;SDS011;919;48.274;12.292;2022-08-03T14:19:05;4.40;;;1.63;;
1799;SDS011;919;48.274;12.292;2022-08-03T14:21:32;1.83;;;1.73;;
1799;SDS011;919;48.274;12.292;2022-08-03T14:23:59;1.63;;;1.53;;
1799;SDS011;919;48.274;12.292;2022-08-03T14:26:26;1.60;;;1.50;;
1799;SDS011;919;48.274;12.292;2022-08-03T14:28:54;1.33;;;1.30;;
1799;SDS011;919;48.274;12.292;2022-08-03T14:31:22;1.50;;;1.40;;
1799;SDS011;919;48.274;12.292;2022-08-03T14:33:50;2.60;;;1.50;;
1799;SDS011;919;48.274;12.292;2022-08-03T14:36:17;1.60;;;1.50;;
1799;SDS011;919;48.274;12.292;2022-08-03T14:38:44;1.30;;;1.20;;
1799;SDS011;919;48.274;12.292;2022-08-03T14:41:11;1.90;;;1.80;;
1799;SDS011;919;48.274;12.292;2022-08-03T14:43:37;1.60;;;1.50;;
1799;SDS011;919;48.274;12.292;2022-08-03T14:46:04;1.80;;;1.63;;
1799;SDS011;919;48.274;12.292;2022-08-03T14:48:32;4.90;;;1.80;;
1799;SDS011;919;48.274;12.292;2022-08-03T14:50:59;2.00;;;1.90;;
1799;SDS011;919;48.274;12.292;2022-08-03T14:53:26;2.27;;;1.53;;
1799;SDS011;919;48.274;12.292;2022-08-03T14:55:54;1.90;;;1.70;;
1799;SDS011;919;48.274;12.292;2022-08-03T14:58:21;1.70;;;1.60;;
1799;SDS011;919;48.274;12.292;2022-08-03T15:00:49;1.50;;;1.40;;
1799;SDS011;919;48.274;12.292;2022-08-03T15:03:17;1.97;;;1.87;;
1799;SDS011;919;48.274;12.292;2022-08-03T15:05:48;1.60;;;1.50;;
1799;SDS011;919;48.274;12.292;2022-08-03T15:08:15;1.60;;;1.50;;
1799;SDS011;919;48.274;12.292;2022-08-03T15:10:42;1.80;;;1.70;;
1799;SDS011;919;48.274;12.292;2022-08-03T15:13:09;1.70;;;1.60;;
1799;SDS011;919;48.274;12.292;2022-08-03T15:15:36;3.23;;;2.00;;
1799;SDS011;919;48.274;12.292;2022-08-03T15:18:03;3.53;;;1.83;;
1799;SDS011;919;48.274;12.292;2022-08-03T15:20:29;1.57;;;1.47;;
1799;SDS011;919;48.274;12.292;2022-08-03T15:22:58;1.80;;;1.70;;
1799;SDS011;919;48.274;12.292;2022-08-03T15:25:24;1.80;;;1.70;;
1799;SDS011;919;48.274;12.292;2022-08-03T15:27:51;1.73;;;1.63;;
1799;SDS011;919;48.274;12.292;2022-08-03T15:30:18;1.83;;;1.73;;
1799;SDS011;919;48.274;12.292;2022-08-03T15:32:45;1.60;;;1.50;;
1799;SDS011;919;48.274;12.292;2022-08-03T15:35:12;1.60;;;1.50;;
1799;SDS011;919;48.274;12.292;2022-08-03T15:37:39;1.53;;;1.43;;
1799;SDS011;919;48.274;12.292;2022-08-03T15:40:08;5.17;;;1.70;;
1799;SDS011;919;48.274;12.292;2022-08-03T15:42:35;1.50;;;1.40;;
1799;SDS011;919;48.274;12.292;2022-08-03T15:45:02;1.33;;;1.33;;
1799;SDS011;919;48.274;12.292;2022-08-03T15:47:29;1.70;;;1.60;;
1799;SDS011;919;48.274;12.292;2022-08-03T15:49:56;2.07;;;1.97;;
1799;SDS011;919;48.274;12.292;2022-08-03T15:52:23;4.70;;;2.03;;